Bethel, Oklahoma
Current Conditions -  °F | °C
As of 1:55 AM on Saturday 20 Dec 2014 (Local Time) from K4O4 Reporting Station
Overcast Overcast  
Wind Chill: 43°   Ceiling: 1700
Heat Index: 43°   Visibility: 7mi
Dew Point: 39°   Wind: 3mph
Humidity: 87%   Direction: 80°E
Pressure: 30.21"   Gusts: NA
Location:  34.36°N, 94.84°W
Report Text: K4O4 200755Z AUTO 08003KT 7SM OVC017 06/04 A3021 RMK AO2
Loading
Personal Weather Stations






























Interactive Weather Map New forecast layout! Learn more

10-Day Weather Forecast

Advertisements
Track Severe Weather on mobile